createdAt,value
2018-02-23T00:03:01.413Z,20.57
2018-02-23T00:07:03.981Z,17.70
2018-02-23T00:11:07.348Z,20.50
2018-02-23T00:15:09.908Z,18.83
2018-02-23T00:19:12.521Z,17.80
2018-02-23T00:23:15.104Z,19.83
2018-02-23T00:27:17.745Z,20.07
2018-02-23T00:31:20.365Z,17.23
2018-02-23T00:35:22.944Z,18.47
2018-02-23T00:39:25.578Z,17.83
2018-02-23T00:43:28.225Z,19.13
2018-02-23T00:47:30.814Z,19.40
2018-02-23T00:51:33.463Z,23.53
2018-02-23T00:55:36.771Z,20.50
2018-02-23T00:59:40.135Z,19.20
2018-02-23T01:03:42.683Z,23.13
2018-02-23T01:07:45.263Z,18.20
2018-02-23T01:11:47.831Z,23.23
2018-02-23T01:15:51.192Z,22.20
2018-02-23T01:19:53.789Z,21.40
2018-02-23T01:23:56.406Z,19.67
2018-02-23T01:27:59.725Z,22.13
2018-02-23T01:32:02.548Z,23.97
2018-02-23T01:36:05.139Z,21.83
2018-02-23T01:40:07.745Z,19.37
2018-02-23T01:44:10.295Z,20.13
2018-02-23T01:48:12.874Z,21.60
2018-02-23T01:52:15.507Z,17.97
2018-02-23T01:56:18.087Z,25.40
2018-02-23T02:00:20.651Z,18.60
2018-02-23T02:04:23.225Z,22.63
2018-02-23T02:08:25.783Z,22.77
2018-02-23T02:12:28.375Z,23.40
2018-02-23T02:16:31.699Z,21.43
2018-02-23T02:20:34.333Z,22.33
2018-02-23T02:24:36.884Z,24.27
2018-02-23T02:28:39.471Z,19.33
2018-02-23T02:32:42.074Z,24.23
2018-02-23T02:36:44.689Z,21.50
2018-02-23T02:40:47.244Z,24.23
2018-02-23T02:44:49.833Z,19.07
2018-02-23T02:48:52.422Z,22.97
2018-02-23T02:52:55.005Z,21.17
2018-02-23T02:56:57.578Z,20.47
2018-02-23T03:01:00.202Z,19.07
2018-02-23T03:05:02.754Z,22.87
2018-02-23T03:09:05.349Z,20.23
2018-02-23T03:13:07.904Z,18.60
2018-02-23T03:17:10.480Z,22.13
2018-02-23T03:21:13.798Z,19.23
2018-02-23T03:25:17.151Z,20.60
2018-02-23T03:29:19.701Z,19.50
2018-02-23T03:33:22.280Z,17.17
2018-02-23T03:37:24.853Z,19.13
2018-02-23T03:41:28.209Z,18.33
2018-02-23T03:45:30.756Z,21.23
2018-02-23T03:49:34.121Z,19.47
2018-02-23T03:53:36.686Z,19.00
2018-02-23T03:57:39.279Z,19.20
2018-02-23T04:01:41.871Z,20.13
2018-02-23T04:05:44.468Z,17.67
2018-02-23T04:09:47.039Z,19.43
2018-02-23T04:13:49.622Z,21.83
2018-02-23T04:17:52.189Z,18.97
2018-02-23T04:21:54.756Z,21.80
2018-02-23T04:25:58.132Z,18.10
2018-02-23T04:30:00.736Z,22.77
2018-02-23T04:34:04.050Z,24.73
2018-02-23T04:38:07.440Z,21.13
2018-02-23T04:42:10.005Z,22.93
2018-02-23T04:46:12.604Z,24.83
2018-02-23T04:50:15.817Z,21.73
2018-02-23T04:54:18.403Z,25.90
2018-02-23T04:58:20.962Z,20.97
2018-02-23T05:02:23.679Z,22.93
2018-02-23T05:06:26.205Z,26.07
2018-02-23T05:10:28.799Z,23.03
2018-02-23T05:14:31.347Z,29.93
2018-02-23T05:18:34.741Z,24.27
2018-02-23T05:22:37.295Z,30.00
2018-02-23T05:26:39.875Z,32.50
2018-02-23T05:30:42.445Z,24.13
2018-02-23T05:34:45.023Z,18.87
2018-02-23T05:38:47.589Z,20.77
2018-02-23T05:42:50.946Z,17.00
2018-02-23T05:46:53.504Z,17.70
2018-02-23T05:50:56.092Z,14.40
2018-02-23T05:54:58.650Z,13.43
2018-02-23T05:59:02.016Z,14.23
2018-02-23T06:03:04.614Z,11.77
2018-02-23T06:07:07.201Z,13.47
2018-02-23T06:11:09.788Z,12.17
2018-02-23T06:15:12.359Z,10.13
2018-02-23T06:19:20.557Z,9.93
2018-02-23T06:23:23.154Z,12.40
2018-02-23T06:27:25.735Z,9.93
2018-02-23T06:31:28.318Z,9.40
2018-02-23T06:35:30.878Z,10.60
2018-02-23T06:39:34.239Z,11.13
2018-02-23T06:43:36.788Z,14.43
2018-02-23T06:47:39.382Z,16.07
2018-02-23T06:51:41.946Z,17.17
2018-02-23T06:55:45.300Z,16.93
2018-02-23T06:59:47.863Z,11.23
2018-02-23T07:03:50.493Z,9.30
2018-02-23T07:07:53.025Z,10.17
2018-02-23T07:11:55.623Z,11.03
2018-02-23T07:15:58.182Z,17.10
2018-02-23T07:20:01.533Z,62.73
2018-02-23T07:24:04.089Z,63.23
2018-02-23T07:28:06.692Z,31.87
2018-02-23T07:32:09.253Z,14.80
2018-02-23T07:36:12.608Z,8.77
2018-02-23T07:40:15.389Z,7.83
2018-02-23T07:44:17.967Z,13.07
2018-02-23T07:48:20.515Z,7.83
2018-02-23T07:52:23.918Z,8.83
2018-02-23T07:56:27.261Z,10.03
2018-02-23T08:00:29.957Z,13.23
2018-02-23T08:04:32.524Z,14.23
2018-02-23T08:08:35.415Z,9.57
2018-02-23T08:12:37.962Z,9.50
2018-02-23T08:16:40.555Z,11.50
2018-02-23T08:20:43.123Z,14.13
2018-02-23T08:24:45.725Z,14.17
2018-02-23T08:28:48.280Z,11.73
2018-02-23T08:32:50.922Z,12.83
2018-02-23T08:36:54.343Z,10.60
2018-02-23T08:40:56.941Z,16.63
2018-02-23T08:44:59.493Z,12.93
2018-02-23T08:49:02.905Z,7.33
2018-02-23T08:53:06.244Z,5.87
2018-02-23T08:57:08.807Z,5.87
2018-02-23T09:01:11.377Z,3.27
2018-02-23T09:05:14.739Z,3.83
2018-02-23T09:09:17.297Z,3.73
2018-02-23T09:13:20.296Z,4.13
2018-02-23T09:17:22.854Z,3.87
2018-02-23T09:21:26.221Z,5.63
2018-02-23T09:25:28.864Z,3.57
2018-02-23T09:29:31.502Z,3.03
2018-02-23T09:33:46.185Z,2.60
2018-02-23T09:37:48.793Z,3.10
2018-02-23T09:41:52.178Z,4.23
2018-02-23T09:45:54.793Z,4.80
2018-02-23T09:49:58.119Z,4.17
2018-02-23T09:54:00.704Z,2.70
2018-02-23T09:58:03.268Z,2.83
2018-02-23T10:02:06.625Z,4.37
2018-02-23T10:06:09.944Z,4.13
2018-02-23T10:10:12.569Z,2.77
2018-02-23T10:14:15.893Z,3.87
2018-02-23T10:18:18.543Z,3.57
2018-02-23T10:22:21.657Z,5.10
2018-02-23T10:26:25.000Z,3.67
2018-02-23T10:30:27.541Z,2.90
2018-02-23T10:34:30.110Z,3.23
2018-02-23T10:38:32.688Z,3.13
2018-02-23T10:42:35.262Z,5.60
2018-02-23T10:46:37.814Z,2.90
2018-02-23T10:50:41.160Z,3.00
2018-02-23T10:54:43.776Z,5.30
2018-02-23T10:58:46.375Z,3.87
2018-02-23T11:02:49.756Z,2.37
2018-02-23T11:06:52.345Z,3.47
2018-02-23T11:10:54.897Z,2.30
2018-02-23T11:14:57.521Z,1.90
2018-02-23T11:19:00.173Z,1.97
2018-02-23T11:23:02.789Z,2.77
2018-02-23T11:27:05.346Z,2.80
2018-02-23T11:31:07.903Z,1.73
2018-02-23T11:35:11.206Z,3.53
2018-02-23T11:39:14.559Z,4.77
2018-02-23T11:43:17.132Z,6.13
2018-02-23T11:47:19.710Z,4.13
2018-02-23T11:51:22.262Z,2.70
2018-02-23T11:55:25.616Z,2.27
2018-02-23T11:59:28.174Z,4.03
2018-02-23T12:03:30.769Z,2.87
2018-02-23T12:07:34.022Z,3.83
2018-02-23T12:11:36.617Z,3.90
2018-02-23T12:15:39.198Z,2.27
2018-02-23T12:19:41.788Z,2.37
2018-02-23T12:23:44.340Z,3.33
2018-02-23T12:27:46.926Z,3.07
2018-02-23T12:31:49.487Z,4.33
2018-02-23T12:35:52.078Z,3.03
2018-02-23T12:39:55.302Z,3.50
2018-02-23T12:43:57.956Z,4.20
2018-02-23T12:48:02.451Z,5.53
2018-02-23T12:52:05.056Z,3.20
2018-02-23T12:56:08.593Z,3.33
2018-02-23T13:04:50.944Z,3.97
2018-02-23T13:08:53.740Z,3.60
2018-02-23T13:12:56.764Z,2.13
2018-02-23T13:16:59.364Z,4.33
2018-02-23T13:21:02.033Z,3.70
2018-02-23T13:25:04.622Z,3.03
2018-02-23T13:29:07.278Z,3.07
2018-02-23T13:33:09.957Z,3.43
2018-02-23T13:37:12.555Z,2.57
2018-02-23T13:41:20.861Z,3.23
2018-02-23T13:45:23.515Z,2.57
2018-02-23T13:49:26.101Z,2.50
2018-02-23T13:53:34.509Z,2.47
2018-02-23T13:57:37.076Z,2.60
2018-02-23T14:04:27.280Z,2.53
2018-02-23T14:08:29.804Z,3.23
2018-02-23T14:12:32.471Z,3.27
2018-02-23T14:16:35.043Z,3.50
2018-02-23T14:20:37.649Z,5.00
2018-02-23T14:24:40.234Z,3.23
2018-02-23T14:28:42.841Z,3.13
2018-02-23T14:32:45.401Z,3.77
2018-02-23T14:36:48.004Z,3.43
2018-02-23T14:40:50.627Z,5.00
2018-02-23T14:44:53.235Z,5.50
2018-02-23T14:49:08.544Z,4.43
2018-02-23T14:53:11.142Z,4.53
2018-02-23T14:57:13.727Z,4.83
2018-02-23T15:01:16.433Z,3.70
2018-02-23T15:05:19.065Z,4.90
2018-02-23T15:09:21.663Z,3.30
2018-02-23T15:13:24.222Z,3.07
2018-02-23T15:17:26.910Z,4.07
2018-02-23T15:21:29.464Z,5.10
2018-02-23T15:25:32.049Z,3.90
2018-02-23T15:29:35.617Z,4.47
2018-02-23T15:33:38.337Z,6.30
2018-02-23T15:37:40.908Z,4.37
2018-02-23T15:41:44.261Z,3.97
2018-02-23T15:45:46.887Z,3.83
2018-02-23T15:49:52.987Z,5.77
2018-02-23T15:53:55.538Z,5.53
2018-02-23T16:02:36.834Z,6.33
2018-02-23T16:06:39.789Z,4.60
2018-02-23T16:10:42.353Z,5.10
2018-02-23T16:14:44.925Z,5.37
2018-02-23T16:18:47.479Z,3.97
2018-02-23T16:22:50.072Z,4.73
2018-02-23T16:26:52.627Z,4.23
2018-02-23T16:30:55.340Z,5.43
2018-02-23T16:34:58.700Z,5.50
2018-02-23T16:39:01.777Z,5.93
2018-02-23T16:43:04.349Z,5.67
2018-02-23T16:47:06.929Z,4.67
2018-02-23T16:51:09.520Z,5.03
2018-02-23T16:55:12.155Z,5.77
2018-02-23T16:59:15.480Z,5.10
2018-02-23T17:03:19.033Z,7.40
2018-02-23T17:07:22.100Z,5.53
2018-02-23T17:11:24.710Z,5.10
2018-02-23T17:15:27.287Z,8.30
2018-02-23T17:19:29.872Z,7.97
2018-02-23T17:23:32.426Z,6.47
2018-02-23T17:27:35.810Z,7.63
2018-02-23T17:31:38.485Z,4.47
2018-02-23T17:35:41.382Z,7.10
2018-02-23T17:39:44.279Z,8.57
2018-02-23T17:43:46.869Z,10.07
2018-02-23T17:47:49.401Z,8.43
2018-02-23T17:51:52.042Z,7.70
2018-02-23T17:55:54.598Z,9.03
2018-02-23T17:59:57.218Z,10.63
2018-02-23T18:03:59.774Z,10.33
2018-02-23T18:08:02.376Z,9.20
2018-02-23T18:12:04.952Z,9.17
2018-02-23T18:16:07.558Z,12.53
2018-02-23T18:20:10.127Z,19.60
2018-02-23T18:24:12.745Z,18.03
2018-02-23T18:28:15.304Z,11.50
2018-02-23T18:32:18.706Z,17.20
2018-02-23T18:36:22.049Z,19.23
2018-02-23T18:40:24.658Z,18.80
2018-02-23T18:44:27.856Z,17.57
2018-02-23T18:48:30.507Z,21.00
2018-02-23T18:52:33.080Z,29.33
2018-02-23T18:56:36.452Z,19.03
2018-02-23T19:00:39.013Z,17.60
2018-02-23T19:04:41.642Z,16.17
2018-02-23T19:08:44.345Z,16.27
2018-02-23T19:12:47.702Z,16.73
2018-02-23T19:16:50.276Z,22.23
2018-02-23T19:20:52.907Z,21.43
2018-02-23T19:24:56.132Z,27.00
2018-02-23T19:28:59.525Z,24.20
2018-02-23T19:33:02.048Z,22.63
2018-02-23T19:37:04.667Z,17.87
2018-02-23T19:41:07.229Z,22.17
2018-02-23T19:45:09.831Z,20.40
2018-02-23T19:49:12.360Z,23.37
2018-02-23T19:53:15.985Z,20.30
2018-02-23T19:57:19.316Z,20.57
2018-02-23T20:01:21.934Z,21.10
2018-02-23T20:05:24.500Z,16.60
2018-02-23T20:09:27.146Z,19.67
2018-02-23T20:13:31.368Z,17.90
2018-02-23T20:17:34.837Z,17.57
2018-02-23T20:21:37.412Z,20.70
2018-02-23T20:25:39.998Z,17.57
2018-02-23T20:29:42.597Z,16.93
2018-02-23T20:33:45.188Z,12.90
2018-02-23T20:37:47.772Z,11.67
2018-02-23T20:41:50.437Z,12.40
2018-02-23T20:45:53.025Z,12.67
2018-02-23T20:49:55.632Z,12.27
2018-02-23T20:53:58.205Z,12.20
2018-02-23T20:58:00.773Z,11.77
2018-02-23T21:02:03.325Z,10.27
2018-02-23T21:06:05.926Z,9.83
2018-02-23T21:10:09.234Z,11.03
2018-02-23T21:14:12.614Z,9.67
2018-02-23T21:18:15.222Z,12.10
2018-02-23T21:22:17.797Z,10.73
2018-02-23T21:26:20.357Z,14.90
2018-02-23T21:30:22.956Z,12.23
2018-02-23T21:34:25.506Z,10.97
2018-02-23T21:38:28.101Z,9.87
2018-02-23T21:42:30.643Z,11.23
2018-02-23T21:46:33.238Z,10.30
2018-02-23T21:50:36.574Z,11.50
2018-02-23T21:54:39.209Z,10.50
2018-02-23T21:58:41.757Z,9.87
2018-02-23T22:02:44.337Z,11.70
2018-02-23T22:06:47.659Z,12.67
2018-02-23T22:10:50.712Z,13.73
2018-02-23T22:14:54.069Z,12.33
2018-02-23T22:18:56.660Z,10.33
2018-02-23T22:22:59.256Z,10.33
2018-02-23T22:27:01.829Z,13.03
2018-02-23T22:31:04.401Z,10.40
2018-02-23T22:35:07.001Z,15.87
2018-02-23T22:39:09.587Z,12.90
2018-02-23T22:43:12.176Z,12.13
2018-02-23T22:47:14.723Z,15.97
2018-02-23T22:51:17.316Z,15.67
2018-02-23T22:55:20.620Z,15.43
2018-02-23T22:59:23.995Z,14.77
2018-02-23T23:03:26.612Z,14.13
2018-02-23T23:07:29.957Z,15.00
2018-02-23T23:11:32.600Z,12.67
2018-02-23T23:15:35.222Z,15.00
2018-02-23T23:19:37.791Z,16.40
2018-02-23T23:23:41.177Z,15.10
2018-02-23T23:27:43.818Z,16.10
2018-02-23T23:31:46.414Z,14.10
2018-02-23T23:35:48.968Z,15.47
2018-02-23T23:39:52.327Z,14.00
2018-02-23T23:43:54.880Z,11.47
2018-02-23T23:47:57.477Z,13.03
2018-02-23T23:52:00.043Z,14.77
2018-02-23T23:56:02.630Z,14.03
